createdAt,value
2019-04-20T00:00:42.993Z,41.82
2019-04-20T00:01:39.226Z,42.51
2019-04-20T00:02:38.320Z,42.51
2019-04-20T00:03:42.330Z,42.32
2019-04-20T00:04:39.276Z,41.89
2019-04-20T00:05:39.225Z,41.91
2019-04-20T00:06:45.097Z,42.41
2019-04-20T00:07:39.725Z,42.41
2019-04-20T00:08:41.140Z,42.32
2019-04-20T00:09:40.097Z,42.61
2019-04-20T00:10:48.635Z,42.41
2019-04-20T00:11:50.760Z,41.91
2019-04-20T00:12:53.609Z,42.41
2019-04-20T00:13:47.667Z,42.02
2019-04-20T00:14:40.588Z,42.61
2019-04-20T00:15:38.914Z,42.49
2019-04-20T00:16:38.130Z,42.61
2019-04-20T00:17:39.365Z,42.40
2019-04-20T00:18:45.025Z,42.41
2019-04-20T00:19:45.041Z,42.41
2019-04-20T00:20:40.384Z,42.51
2019-04-20T00:21:43.135Z,42.61
2019-04-20T00:22:45.219Z,42.02
2019-04-20T00:23:42.003Z,42.71
2019-04-20T00:24:39.304Z,42.71
2019-04-20T00:25:50.309Z,42.51
2019-04-20T00:27:59.706Z,42.32
2019-04-20T00:29:00.274Z,42.41
2019-04-20T00:29:54.724Z,42.41
2019-04-20T00:31:00.036Z,42.21
2019-04-20T00:31:50.434Z,42.21
2019-04-20T00:32:54.680Z,42.81
2019-04-20T00:33:50.739Z,42.81
2019-04-20T00:34:41.661Z,42.71
2019-04-20T00:35:40.148Z,42.51
2019-04-20T00:36:39.108Z,42.32
2019-04-20T00:37:38.104Z,42.51
2019-04-20T00:38:42.580Z,42.21
2019-04-20T00:39:38.929Z,42.21
2019-04-20T00:40:39.168Z,42.32
2019-04-20T00:41:44.132Z,42.32
2019-04-20T00:42:44.145Z,42.11
2019-04-20T00:43:40.825Z,42.61
2019-04-20T00:44:41.290Z,42.32
2019-04-20T00:45:46.727Z,42.11
2019-04-20T00:46:51.241Z,42.41
2019-04-20T00:47:47.720Z,42.21
2019-04-20T00:48:48.403Z,42.32
2019-04-20T00:50:49.078Z,42.32
2019-04-20T00:51:59.950Z,42.51
2019-04-20T00:52:55.592Z,42.32
2019-04-20T00:53:43.259Z,42.21
2019-04-20T00:54:39.072Z,42.32
2019-04-20T00:55:38.029Z,42.32
2019-04-20T00:56:37.619Z,42.41
2019-04-20T00:57:46.615Z,42.51
2019-04-20T00:58:52.245Z,42.41
2019-04-20T01:00:03.597Z,42.41
2019-04-20T01:01:04.084Z,42.32
2019-04-20T01:02:02.316Z,42.32
2019-04-20T01:02:50.604Z,42.41
2019-04-20T01:03:50.365Z,42.11
2019-04-20T01:05:01.270Z,42.51
2019-04-20T01:06:04.281Z,42.33
2019-04-20T01:06:55.079Z,42.51
2019-04-20T01:07:45.564Z,42.51
2019-04-20T01:08:38.479Z,42.32
2019-04-20T01:09:37.466Z,42.91
2019-04-20T01:10:44.804Z,42.71
2019-04-20T01:11:42.227Z,42.71
2019-04-20T01:12:40.601Z,42.71
2019-04-20T01:13:45.925Z,42.71
2019-04-20T01:14:46.597Z,42.41
2019-04-20T01:15:50.241Z,42.02
2019-04-20T01:16:46.973Z,42.32
2019-04-20T01:17:41.733Z,42.71
2019-04-20T01:18:37.454Z,42.51
2019-04-20T01:19:37.466Z,42.71
2019-04-20T01:20:37.425Z,42.91
2019-04-20T01:21:38.377Z,42.51
2019-04-20T01:22:44.631Z,42.51
2019-04-20T01:23:46.211Z,42.81
2019-04-20T01:24:43.261Z,42.41
2019-04-20T01:25:42.453Z,42.91
2019-04-20T01:26:45.586Z,42.51
2019-04-20T01:27:51.514Z,42.71
2019-04-20T01:28:51.124Z,42.51
2019-04-20T01:29:45.677Z,42.91
2019-04-20T01:30:44.432Z,42.91
2019-04-20T01:32:57.618Z,42.51
2019-04-20T01:33:50.815Z,42.91
2019-04-20T01:34:50.476Z,42.51
2019-04-20T01:35:53.214Z,42.51
2019-04-20T01:36:55.698Z,42.91
2019-04-20T01:37:57.545Z,42.91
2019-04-20T01:38:51.301Z,42.71
2019-04-20T01:39:46.278Z,42.71
2019-04-20T01:40:38.225Z,42.61
2019-04-20T01:41:37.227Z,42.41
2019-04-20T01:42:38.289Z,42.32
2019-04-20T01:43:37.449Z,42.51
2019-04-20T01:44:43.375Z,42.51
2019-04-20T01:45:40.904Z,42.54
2019-04-20T01:46:39.156Z,42.51
2019-04-20T01:47:45.443Z,42.51
2019-04-20T01:48:41.216Z,42.91
2019-04-20T01:49:39.919Z,42.91
2019-04-20T01:50:43.841Z,42.81
2019-04-20T01:51:48.765Z,42.71
2019-04-20T01:52:50.701Z,42.71
2019-04-20T01:53:50.408Z,42.41
2019-04-20T01:54:58.018Z,42.71
2019-04-20T01:55:51.079Z,42.51
2019-04-20T01:56:48.641Z,42.91
2019-04-20T01:57:56.297Z,42.32
2019-04-20T01:58:58.505Z,42.71
2019-04-20T01:59:45.999Z,42.51
2019-04-20T02:00:40.707Z,43.21
2019-04-20T02:01:40.686Z,42.91
2019-04-20T02:02:46.086Z,42.81
2019-04-20T02:03:43.400Z,42.61
2019-04-20T02:04:40.993Z,42.71
2019-04-20T02:05:40.009Z,42.71
2019-04-20T02:06:44.039Z,42.51
2019-04-20T02:07:43.819Z,42.54
2019-04-20T02:08:37.935Z,42.41
2019-04-20T02:09:43.303Z,42.41
2019-04-20T02:10:46.795Z,42.71
2019-04-20T02:11:41.369Z,42.51
2019-04-20T02:12:40.578Z,42.71
2019-04-20T02:13:47.016Z,42.51
2019-04-20T02:14:43.695Z,42.41
2019-04-20T02:15:44.654Z,42.61
2019-04-20T02:16:44.047Z,42.71
2019-04-20T02:17:46.209Z,42.91
2019-04-20T02:18:51.446Z,42.71
2019-04-20T02:20:02.300Z,42.51
2019-04-20T02:21:00.216Z,42.43
2019-04-20T02:21:52.033Z,42.54
2019-04-20T02:22:55.039Z,42.61
2019-04-20T02:23:46.420Z,42.41
2019-04-20T02:24:38.756Z,42.91
2019-04-20T02:25:37.670Z,42.61
2019-04-20T02:26:36.795Z,42.41
2019-04-20T02:27:44.460Z,42.81
2019-04-20T02:29:07.499Z,42.71
2019-04-20T02:29:58.505Z,42.81
2019-04-20T02:31:20.848Z,42.71
2019-04-20T02:33:23.522Z,43.13
2019-04-20T02:34:16.441Z,42.91
2019-04-20T02:35:07.166Z,42.63
2019-04-20T02:36:33.640Z,42.73
2019-04-20T02:37:13.872Z,42.54
2019-04-20T02:38:12.131Z,42.54
2019-04-20T02:39:21.073Z,42.83
2019-04-20T02:40:12.901Z,42.93
2019-04-20T02:41:12.048Z,42.73
2019-04-20T02:42:20.348Z,42.73
2019-04-20T02:43:16.839Z,43.03
2019-04-20T02:44:24.126Z,42.73
2019-04-20T02:45:18.777Z,42.54
2019-04-20T02:46:12.999Z,42.73
2019-04-20T02:48:08.122Z,42.51
2019-04-20T02:49:27.286Z,42.93
2019-04-20T02:50:05.459Z,42.91
2019-04-20T02:51:06.554Z,42.73
2019-04-20T02:52:28.854Z,42.54
2019-04-20T02:53:13.157Z,42.54
2019-04-20T02:55:10.840Z,42.51
2019-04-20T02:56:15.248Z,42.51
2019-04-20T02:57:10.566Z,42.54
2019-04-20T02:58:07.316Z,42.91
2019-04-20T03:01:00.169Z,42.61
2019-04-20T03:01:57.331Z,42.91
2019-04-20T03:02:49.885Z,42.71
2019-04-20T03:03:46.243Z,42.83
2019-04-20T03:04:47.073Z,42.73
2019-04-20T03:05:46.070Z,42.63
2019-04-20T03:06:55.008Z,42.81
2019-04-20T03:07:57.394Z,43.11
2019-04-20T03:08:56.334Z,42.73
2019-04-20T03:09:58.205Z,42.71
2019-04-20T03:11:06.273Z,42.73
2019-04-20T03:12:59.376Z,42.41
2019-04-20T03:13:59.382Z,43.03
2019-04-20T03:14:52.769Z,43.33
2019-04-20T03:15:54.987Z,43.31
2019-04-20T03:16:55.257Z,42.71
2019-04-20T03:18:00.125Z,43.31
2019-04-20T03:18:55.859Z,42.73
2019-04-20T03:19:47.601Z,42.43
2019-04-20T03:21:00.806Z,42.83
2019-04-20T03:22:05.061Z,42.83
2019-04-20T03:23:21.343Z,42.63
2019-04-20T03:24:09.889Z,42.51
2019-04-20T03:25:03.914Z,42.71
2019-04-20T03:26:00.619Z,42.54
2019-04-20T03:26:56.995Z,42.93
2019-04-20T03:27:59.113Z,42.33
2019-04-20T03:28:54.301Z,42.51
2019-04-20T03:29:57.360Z,42.73
2019-04-20T03:33:14.625Z,42.21
2019-04-20T03:34:23.549Z,43.43
2019-04-20T03:35:05.170Z,42.83
2019-04-20T03:36:09.356Z,43.33
2019-04-20T03:37:04.701Z,43.03
2019-04-20T03:37:58.687Z,42.93
2019-04-20T03:38:57.471Z,42.54
2019-04-20T03:39:55.471Z,42.93
2019-04-20T03:40:49.618Z,42.63
2019-04-20T03:41:43.476Z,42.73
2019-04-20T03:42:37.124Z,42.71
2019-04-20T03:43:37.035Z,42.73
2019-04-20T03:44:37.517Z,42.93
2019-04-20T03:45:44.774Z,42.93
2019-04-20T03:46:45.629Z,42.54
2019-04-20T03:47:49.699Z,42.54
2019-04-20T03:48:54.747Z,42.73
2019-04-20T03:49:59.660Z,42.83
2019-04-20T03:50:58.949Z,42.73
2019-04-20T03:51:57.395Z,42.73
2019-04-20T03:53:04.428Z,42.43
2019-04-20T03:53:57.923Z,42.73
2019-04-20T03:54:48.104Z,42.63
2019-04-20T03:55:52.932Z,43.03
2019-04-20T03:56:54.709Z,42.54
2019-04-20T03:57:57.603Z,42.83
2019-04-20T03:58:51.951Z,42.63
2019-04-20T03:59:55.103Z,43.23
2019-04-20T04:00:57.894Z,43.23
2019-04-20T04:02:14.855Z,43.23
2019-04-20T04:03:11.008Z,42.54
2019-04-20T04:04:03.256Z,42.63
2019-04-20T04:04:54.801Z,43.33
2019-04-20T04:05:54.830Z,43.13
2019-04-20T04:06:46.118Z,42.93
2019-04-20T04:07:43.767Z,43.13
2019-04-20T04:08:46.720Z,43.33
2019-04-20T04:09:53.450Z,43.23
2019-04-20T04:10:56.096Z,43.33
2019-04-20T04:11:51.500Z,43.33
2019-04-20T04:12:39.895Z,43.03
2019-04-20T04:13:37.650Z,43.23
2019-04-20T04:14:36.534Z,43.03
2019-04-20T04:15:42.671Z,43.03
2019-04-20T04:16:42.903Z,43.13
2019-04-20T04:17:40.583Z,43.03
2019-04-20T04:18:41.013Z,43.03
2019-04-20T04:19:38.771Z,43.03
2019-04-20T04:20:44.313Z,43.03
2019-04-20T04:21:53.903Z,43.03
2019-04-20T04:22:50.264Z,43.23
2019-04-20T04:23:54.276Z,43.23
2019-04-20T04:24:52.596Z,42.73
2019-04-20T04:25:55.647Z,42.63
2019-04-20T04:26:51.211Z,42.63
2019-04-20T04:27:55.101Z,42.93
2019-04-20T04:28:53.729Z,42.63
2019-04-20T04:29:58.288Z,42.83
2019-04-20T04:30:56.561Z,43.33
2019-04-20T04:32:06.668Z,42.54
2019-04-20T04:33:24.922Z,42.93
2019-04-20T04:34:52.690Z,42.93
2019-04-20T04:35:55.195Z,42.83
2019-04-20T04:36:59.425Z,42.63
2019-04-20T04:37:53.954Z,42.63
2019-04-20T04:39:05.413Z,43.03
2019-04-20T04:40:07.860Z,42.63
2019-04-20T04:41:06.571Z,42.93
2019-04-20T04:42:01.827Z,42.93
2019-04-20T04:43:00.736Z,42.93
2019-04-20T04:43:54.133Z,42.73
2019-04-20T04:44:46.829Z,42.63
2019-04-20T04:45:36.970Z,42.73
2019-04-20T04:46:43.497Z,42.43
2019-04-20T04:47:36.771Z,42.54
2019-04-20T04:48:40.660Z,42.73
2019-04-20T04:49:40.985Z,42.83
2019-04-20T04:50:44.876Z,42.83
2019-04-20T04:51:44.727Z,42.83
2019-04-20T04:52:45.376Z,42.73
2019-04-20T04:53:47.639Z,43.33
2019-04-20T04:54:45.291Z,42.83
2019-04-20T04:55:45.802Z,43.33
2019-04-20T04:56:35.943Z,42.63
2019-04-20T04:57:35.002Z,42.54
2019-04-20T04:58:36.169Z,42.73
2019-04-20T04:59:36.161Z,42.83
2019-04-20T05:00:36.314Z,42.83
2019-04-20T05:01:36.983Z,42.83
2019-04-20T05:02:41.240Z,43.13
2019-04-20T05:03:58.279Z,43.23
2019-04-20T05:04:58.193Z,43.03
2019-04-20T05:05:58.893Z,43.53
2019-04-20T05:06:48.124Z,42.83
2019-04-20T05:07:47.816Z,42.83
2019-04-20T05:08:41.811Z,43.13
2019-04-20T05:09:35.966Z,42.83
2019-04-20T05:10:34.912Z,43.13
2019-04-20T05:11:35.438Z,43.13
2019-04-20T05:12:36.975Z,43.13
2019-04-20T05:13:41.866Z,43.03
2019-04-20T05:14:47.112Z,43.01
2019-04-20T05:15:50.766Z,43.03
2019-04-20T05:16:50.979Z,43.03
2019-04-20T05:17:57.846Z,43.03
2019-04-20T05:18:57.855Z,43.13
2019-04-20T05:19:53.094Z,43.13
2019-04-20T05:20:58.852Z,42.73
2019-04-20T05:21:59.829Z,42.63
2019-04-20T05:22:50.998Z,42.83
2019-04-20T05:23:49.157Z,42.73
2019-04-20T05:24:56.715Z,42.93
2019-04-20T05:25:56.988Z,42.54
2019-04-20T05:26:55.644Z,42.54
2019-04-20T05:27:56.632Z,42.41
2019-04-20T05:28:47.317Z,42.63
2019-04-20T05:29:37.807Z,42.73
2019-04-20T05:30:42.910Z,42.73
2019-04-20T05:31:46.219Z,42.54
2019-04-20T05:32:44.912Z,42.83
2019-04-20T05:34:03.520Z,43.83
2019-04-20T05:35:02.487Z,42.63
2019-04-20T05:35:54.708Z,42.63
2019-04-20T05:36:55.664Z,42.63
2019-04-20T05:38:02.751Z,43.71
2019-04-20T05:38:54.621Z,43.53
2019-04-20T05:40:00.345Z,43.83
2019-04-20T05:40:59.801Z,43.43
2019-04-20T05:41:51.469Z,43.43
2019-04-20T05:42:53.772Z,43.43
2019-04-20T05:43:50.595Z,43.63
2019-04-20T05:45:03.291Z,43.61
2019-04-20T05:45:50.357Z,43.43
2019-04-20T05:46:56.932Z,43.63
2019-04-20T05:47:52.426Z,43.33
2019-04-20T05:48:57.923Z,43.41
2019-04-20T05:49:53.697Z,43.21
2019-04-20T05:50:52.816Z,43.63
2019-04-20T05:51:56.016Z,43.81
2019-04-20T05:53:01.669Z,43.31
2019-04-20T05:53:58.760Z,43.33
2019-04-20T05:54:56.274Z,43.11
2019-04-20T05:55:54.440Z,43.03
2019-04-20T05:56:58.534Z,43.11
2019-04-20T05:57:56.614Z,43.23
2019-04-20T05:58:56.793Z,43.31
2019-04-20T06:00:05.275Z,43.43
2019-04-20T06:01:01.500Z,43.41
2019-04-20T06:02:02.169Z,43.33
2019-04-20T06:02:53.927Z,43.61
2019-04-20T06:03:53.963Z,43.11
2019-04-20T06:05:05.684Z,43.43
2019-04-20T06:06:03.539Z,43.53
2019-04-20T06:06:56.708Z,43.43
2019-04-20T06:07:56.293Z,43.43
2019-04-20T06:08:59.303Z,43.43
2019-04-20T06:09:59.964Z,43.43
2019-04-20T06:10:55.079Z,43.33
2019-04-20T06:12:07.510Z,43.21
2019-04-20T06:12:51.747Z,43.51
2019-04-20T06:13:47.126Z,43.11
2019-04-20T06:14:49.542Z,43.31
2019-04-20T06:15:58.022Z,43.21
2019-04-20T06:16:55.829Z,43.21
2019-04-20T06:17:53.111Z,43.11
2019-04-20T06:18:56.101Z,43.11
2019-04-20T06:20:01.717Z,43.01
2019-04-20T06:20:58.954Z,43.21
2019-04-20T06:21:57.549Z,43.11
2019-04-20T06:23:07.026Z,43.11
2019-04-20T06:23:59.464Z,43.21
2019-04-20T06:25:04.528Z,43.11
2019-04-20T06:27:00.909Z,43.11
2019-04-20T06:28:00.905Z,43.01
2019-04-20T06:28:42.942Z,43.11
2019-04-20T06:29:54.432Z,43.11
2019-04-20T06:30:51.109Z,43.19
2019-04-20T06:31:51.799Z,43.11
2019-04-20T06:33:06.871Z,43.09
2019-04-20T06:34:08.887Z,43.09
2019-04-20T06:34:57.085Z,43.21
2019-04-20T06:37:07.143Z,43.39
2019-04-20T06:38:05.350Z,43.49
2019-04-20T06:39:02.013Z,43.21
2019-04-20T06:40:15.650Z,43.51
2019-04-20T06:41:09.360Z,43.49
2019-04-20T06:42:54.920Z,43.51
2019-04-20T06:44:02.590Z,43.29
2019-04-20T06:44:57.345Z,43.39
2019-04-20T06:46:08.618Z,43.19
2019-04-20T06:47:06.775Z,43.49
2019-04-20T06:47:57.855Z,43.59
2019-04-20T06:49:05.736Z,43.49
2019-04-20T06:49:54.838Z,43.49
2019-04-20T06:50:48.365Z,43.39
2019-04-20T06:51:59.319Z,43.39
2019-04-20T06:52:52.558Z,43.49
2019-04-20T06:53:51.117Z,43.39
2019-04-20T06:54:54.146Z,43.39
2019-04-20T06:55:59.142Z,43.47
2019-04-20T06:56:58.173Z,43.49
2019-04-20T06:58:02.316Z,43.77
2019-04-20T06:58:57.770Z,44.19
2019-04-20T06:59:52.501Z,43.97
2019-04-20T07:00:56.550Z,43.89
2019-04-20T07:02:05.526Z,44.07
2019-04-20T07:02:56.343Z,43.97
2019-04-20T07:04:15.703Z,43.77
2019-04-20T07:04:59.666Z,44.07
2019-04-20T07:06:06.463Z,44.37
2019-04-20T07:07:07.260Z,44.27
2019-04-20T07:07:56.392Z,44.37
2019-04-20T07:09:00.376Z,44.27
2019-04-20T07:10:11.774Z,44.17
2019-04-20T07:10:59.331Z,44.27
2019-04-20T07:11:51.901Z,44.07
2019-04-20T07:12:49.717Z,44.07
2019-04-20T07:13:46.096Z,44.27
2019-04-20T07:14:46.893Z,44.07
2019-04-20T07:15:49.340Z,44.17
2019-04-20T07:16:53.384Z,43.97
2019-04-20T07:17:57.644Z,43.87
2019-04-20T07:18:57.578Z,43.67
2019-04-20T07:19:54.320Z,43.37
2019-04-20T07:21:01.847Z,43.77
2019-04-20T07:23:03.644Z,43.37
2019-04-20T07:24:03.576Z,42.37
2019-04-20T07:24:57.820Z,42.87
2019-04-20T07:25:58.535Z,43.27
2019-04-20T07:26:59.094Z,42.97
2019-04-20T07:27:54.601Z,43.05
2019-04-20T07:29:05.428Z,42.77
2019-04-20T07:29:57.938Z,42.27
2019-04-20T07:30:55.352Z,41.75
2019-04-20T07:31:50.020Z,41.25
2019-04-20T07:33:12.588Z,40.98
2019-04-20T07:33:56.764Z,40.95
2019-04-20T07:34:56.786Z,41.46
2019-04-20T07:35:53.419Z,41.47
2019-04-20T07:37:17.935Z,40.86
2019-04-20T07:38:15.490Z,41.46
2019-04-20T07:38:56.794Z,40.76
2019-04-20T07:40:02.686Z,40.88
2019-04-20T07:40:51.244Z,40.56
2019-04-20T07:42:01.805Z,40.58
2019-04-20T07:42:56.454Z,40.36
2019-04-20T07:44:05.839Z,40.18
2019-04-20T07:45:02.977Z,40.16
2019-04-20T07:45:58.810Z,39.08
2019-04-20T07:47:04.386Z,39.36
2019-04-20T07:48:01.622Z,39.48
2019-04-20T07:48:56.472Z,39.66
2019-04-20T07:49:49.739Z,38.86
2019-04-20T07:50:47.491Z,38.78
2019-04-20T07:51:39.965Z,39.06
2019-04-20T07:52:48.811Z,38.86
2019-04-20T07:53:58.642Z,38.56
2019-04-20T07:55:11.886Z,38.37
2019-04-20T07:55:56.458Z,38.89
2019-04-20T07:56:53.729Z,38.17
2019-04-20T07:57:50.757Z,38.56
2019-04-20T07:58:44.116Z,38.86
2019-04-20T07:59:52.820Z,37.97
2019-04-20T08:01:18.168Z,38.17
2019-04-20T08:02:01.911Z,38.27
2019-04-20T08:02:59.819Z,37.77
2019-04-20T08:03:57.018Z,37.97
2019-04-20T08:04:52.397Z,37.77
2019-04-20T08:05:46.759Z,37.07
2019-04-20T08:06:43.179Z,37.47
2019-04-20T08:07:45.703Z,37.17
2019-04-20T08:08:48.969Z,36.77
2019-04-20T08:09:40.756Z,36.97
2019-04-20T08:10:52.023Z,37.37
2019-04-20T08:11:56.683Z,36.77
2019-04-20T08:13:02.329Z,36.67
2019-04-20T08:13:56.988Z,36.47
2019-04-20T08:15:05.307Z,37.47
2019-04-20T08:15:57.165Z,36.67
2019-04-20T08:16:58.641Z,36.47
2019-04-20T08:18:08.839Z,36.57
2019-04-20T08:18:53.958Z,36.57
2019-04-20T08:19:50.980Z,36.47
2019-04-20T08:20:57.650Z,36.65
2019-04-20T08:21:52.919Z,36.57
2019-04-20T08:22:53.722Z,36.76
2019-04-20T08:23:50.258Z,36.77
2019-04-20T08:24:48.647Z,36.37
2019-04-20T08:25:46.811Z,36.97
2019-04-20T08:26:41.539Z,36.76
2019-04-20T08:27:33.868Z,36.67
2019-04-20T08:28:42.593Z,37.17
2019-04-20T08:29:45.037Z,36.57
2019-04-20T08:30:48.678Z,37.87
2019-04-20T08:31:49.047Z,38.15
2019-04-20T08:32:51.484Z,38.46
2019-04-20T08:34:01.733Z,38.25
2019-04-20T08:34:53.719Z,38.56
2019-04-20T08:35:58.631Z,38.35
2019-04-20T08:36:59.449Z,38.37
2019-04-20T08:38:19.921Z,38.86
2019-04-20T08:40:53.613Z,38.25
2019-04-20T08:41:56.334Z,38.45
2019-04-20T08:43:02.866Z,38.25
2019-04-20T08:44:31.687Z,38.35
2019-04-20T08:45:00.105Z,38.25
2019-04-20T08:45:52.761Z,37.95
2019-04-20T08:47:06.110Z,37.75
2019-04-20T08:47:57.143Z,37.65
2019-04-20T08:48:56.842Z,37.75
2019-04-20T08:49:58.181Z,37.57
2019-04-20T08:50:50.720Z,37.75
2019-04-20T08:52:01.804Z,37.55
2019-04-20T08:53:51.837Z,37.97
2019-04-20T08:54:49.924Z,37.95
2019-04-20T08:55:45.070Z,38.35
2019-04-20T08:56:42.418Z,38.45
2019-04-20T08:57:33.655Z,38.27
2019-04-20T08:58:32.246Z,38.35
2019-04-20T08:59:35.060Z,38.15
2019-04-20T09:00:39.661Z,38.54
2019-04-20T09:01:35.740Z,38.45
2019-04-20T09:02:32.676Z,38.05
2019-04-20T09:03:44.098Z,38.65
2019-04-20T09:04:43.256Z,38.15
2019-04-20T09:05:47.341Z,38.65
2019-04-20T09:06:45.724Z,38.84
2019-04-20T09:07:45.290Z,38.54
2019-04-20T09:08:47.832Z,38.54
2019-04-20T09:09:56.467Z,38.54
2019-04-20T09:10:49.263Z,38.54
2019-04-20T09:11:55.592Z,38.75
2019-04-20T09:12:44.873Z,38.75
2019-04-20T09:13:41.396Z,38.75
2019-04-20T09:14:36.089Z,39.14
2019-04-20T09:15:32.161Z,38.93
2019-04-20T09:16:40.941Z,39.04
2019-04-20T09:17:39.807Z,38.63
2019-04-20T09:18:44.247Z,39.72
2019-04-20T09:19:41.653Z,39.44
2019-04-20T09:20:43.538Z,39.44
2019-04-20T09:21:43.632Z,39.23
2019-04-20T09:22:44.442Z,39.72
2019-04-20T09:23:45.609Z,40.04
2019-04-20T09:24:52.811Z,40.42
2019-04-20T09:26:05.951Z,40.32
2019-04-20T09:26:48.959Z,40.52
2019-04-20T09:27:42.893Z,41.31
2019-04-20T09:28:41.730Z,41.03
2019-04-20T09:29:44.894Z,41.31
2019-04-20T09:30:43.770Z,41.63
2019-04-20T09:31:50.258Z,41.42
2019-04-20T09:32:43.918Z,41.82
2019-04-20T09:33:51.707Z,41.82
2019-04-20T09:34:54.586Z,42.41
2019-04-20T09:35:48.604Z,42.51
2019-04-20T09:36:45.829Z,42.21
2019-04-20T09:37:49.688Z,42.21
2019-04-20T09:38:45.940Z,42.53
2019-04-20T09:39:45.013Z,42.73
2019-04-20T09:40:51.108Z,43.11
2019-04-20T09:41:56.528Z,42.81
2019-04-20T09:42:32.763Z,42.81
2019-04-20T09:43:32.398Z,42.63
2019-04-20T09:44:38.643Z,42.41
2019-04-20T09:45:38.219Z,43.11
2019-04-20T09:46:37.775Z,43.51
2019-04-20T09:47:40.907Z,42.91
2019-04-20T09:48:40.235Z,43.21
2019-04-20T09:49:42.796Z,43.21
2019-04-20T09:50:55.594Z,44.10
2019-04-20T09:51:50.054Z,43.60
2019-04-20T09:52:51.288Z,43.90
2019-04-20T09:53:44.274Z,44.01
2019-04-20T09:54:52.427Z,44.10
2019-04-20T09:55:47.304Z,43.71
2019-04-20T09:56:55.439Z,43.71
2019-04-20T09:57:50.237Z,44.01
2019-04-20T09:58:56.327Z,44.10
2019-04-20T09:59:52.637Z,44.01
2019-04-20T10:00:48.608Z,44.10
2019-04-20T10:01:40.284Z,44.20
2019-04-20T10:02:34.777Z,44.10
2019-04-20T10:03:31.519Z,44.20
2019-04-20T10:04:31.598Z,44.60
2019-04-20T10:05:31.615Z,44.40
2019-04-20T10:06:34.532Z,44.60
2019-04-20T10:07:35.332Z,44.60
2019-04-20T10:08:34.023Z,45.00
2019-04-20T10:09:37.676Z,45.20
2019-04-20T10:10:38.874Z,44.90
2019-04-20T10:11:32.449Z,45.10
2019-04-20T10:12:31.578Z,45.10
2019-04-20T10:13:32.200Z,45.30
2019-04-20T10:14:31.372Z,45.50
2019-04-20T10:15:32.951Z,45.90
2019-04-20T10:16:31.530Z,45.30
2019-04-20T10:17:33.237Z,45.08
2019-04-20T10:18:34.260Z,44.40
2019-04-20T10:19:35.567Z,44.70
2019-04-20T10:20:35.285Z,44.31
2019-04-20T10:21:32.297Z,43.30
2019-04-20T10:22:31.323Z,40.52
2019-04-20T10:23:32.486Z,40.22
2019-04-20T10:24:32.679Z,42.51
2019-04-20T10:25:31.251Z,42.29
2019-04-20T10:26:32.410Z,40.12
2019-04-20T10:27:32.621Z,38.91
2019-04-20T10:28:31.823Z,40.60
2019-04-20T10:29:31.393Z,38.61
2019-04-20T10:30:32.461Z,38.53
2019-04-20T10:31:37.710Z,37.71
2019-04-20T10:32:38.864Z,38.31
2019-04-20T10:33:33.439Z,38.61
2019-04-20T10:34:32.627Z,41.09
2019-04-20T10:35:31.778Z,41.00
2019-04-20T10:36:31.136Z,42.29
2019-04-20T10:37:31.583Z,42.39
2019-04-20T10:38:34.200Z,42.29
2019-04-20T10:39:31.196Z,42.39
2019-04-20T10:40:45.017Z,43.38
2019-04-20T10:41:40.887Z,44.78
2019-04-20T10:42:32.272Z,44.78
2019-04-20T10:43:31.159Z,45.08
2019-04-20T10:44:31.145Z,44.98
2019-04-20T10:45:31.145Z,45.18
2019-04-20T10:46:31.177Z,45.28
2019-04-20T10:47:31.058Z,44.68
2019-04-20T10:48:37.604Z,45.18
2019-04-20T10:49:33.242Z,44.98
2019-04-20T10:50:31.250Z,44.98
2019-04-20T10:51:31.455Z,45.18
2019-04-20T10:52:32.022Z,45.08
2019-04-20T10:53:32.190Z,45.57
2019-04-20T10:54:32.253Z,45.37
2019-04-20T10:55:31.450Z,45.48
2019-04-20T10:56:31.712Z,45.37
2019-04-20T10:57:31.288Z,45.48
2019-04-20T10:58:31.725Z,45.26
2019-04-20T10:59:31.840Z,45.67
2019-04-20T11:00:31.385Z,45.67
2019-04-20T11:01:31.656Z,45.78
2019-04-20T11:02:31.881Z,45.87
2019-04-20T11:03:32.221Z,46.08
2019-04-20T11:04:30.955Z,45.97
2019-04-20T11:05:30.914Z,45.87
2019-04-20T11:06:32.287Z,45.95
2019-04-20T11:07:30.901Z,45.97
2019-04-20T11:08:30.919Z,45.87
2019-04-20T11:09:30.891Z,46.47
2019-04-20T11:10:46.772Z,45.85
2019-04-20T11:11:33.553Z,46.08
2019-04-20T11:12:30.835Z,45.95
2019-04-20T11:13:30.841Z,45.85
2019-04-20T11:14:34.533Z,45.85
2019-04-20T11:15:32.451Z,45.85
2019-04-20T11:16:30.833Z,45.85
2019-04-20T11:17:31.774Z,45.75
2019-04-20T11:18:31.398Z,45.65
2019-04-20T11:19:31.556Z,46.05
2019-04-20T11:20:31.108Z,46.15
2019-04-20T11:21:30.756Z,45.85
2019-04-20T11:22:30.773Z,45.95
2019-04-20T11:23:32.022Z,45.85
2019-04-20T11:24:32.192Z,45.95
2019-04-20T11:25:30.717Z,45.75
2019-04-20T11:26:32.167Z,45.85
2019-04-20T11:27:32.114Z,46.15
2019-04-20T11:28:30.664Z,46.15
2019-04-20T11:29:31.920Z,46.25
2019-04-20T11:30:32.091Z,46.15
2019-04-20T11:31:37.339Z,46.05
2019-04-20T11:32:31.634Z,46.03
2019-04-20T11:33:31.987Z,46.15
2019-04-20T11:34:33.994Z,46.35
2019-04-20T11:35:37.483Z,46.05
2019-04-20T11:36:32.884Z,46.25
2019-04-20T11:37:31.007Z,46.35
2019-04-20T11:38:30.562Z,46.15
2019-04-20T11:39:30.545Z,46.15
2019-04-20T11:40:30.888Z,46.45
2019-04-20T11:41:33.673Z,46.95
2019-04-20T11:42:31.873Z,46.55
2019-04-20T11:43:31.488Z,46.75
2019-04-20T11:44:32.978Z,46.84
2019-04-20T11:45:30.957Z,46.45
2019-04-20T11:46:30.584Z,46.45
2019-04-20T11:47:31.590Z,47.05
2019-04-20T11:48:31.713Z,46.75
2019-04-20T11:49:31.298Z,47.25
2019-04-20T11:50:31.573Z,47.05
2019-04-20T11:51:31.661Z,46.84
2019-04-20T11:52:33.278Z,46.65
2019-04-20T11:53:32.255Z,46.45
2019-04-20T11:54:30.578Z,46.45
2019-04-20T11:55:30.683Z,46.65
2019-04-20T11:56:35.258Z,46.75
2019-04-20T11:57:31.405Z,46.42
2019-04-20T11:58:30.451Z,46.35
2019-04-20T11:59:30.625Z,46.15
2019-04-20T12:00:37.069Z,46.23
2019-04-20T12:01:36.913Z,46.33
2019-04-20T12:02:37.188Z,46.35
2019-04-20T12:03:41.735Z,46.05
2019-04-20T12:04:40.871Z,46.13
2019-04-20T12:05:39.085Z,45.73
2019-04-20T12:06:32.681Z,45.73
2019-04-20T12:07:32.307Z,45.83
2019-04-20T12:08:31.186Z,46.13
2019-04-20T12:09:31.404Z,45.93
2019-04-20T12:10:31.520Z,45.93
2019-04-20T12:11:39.639Z,45.95
2019-04-20T12:12:38.991Z,45.83
2019-04-20T12:13:31.205Z,45.93
2019-04-20T12:14:30.475Z,45.93
2019-04-20T12:15:32.179Z,46.05
2019-04-20T12:16:30.151Z,46.03
2019-04-20T12:17:31.391Z,46.42
2019-04-20T12:18:31.551Z,45.63
2019-04-20T12:19:31.189Z,46.23
2019-04-20T12:20:30.104Z,46.03
2019-04-20T12:21:30.713Z,46.42
2019-04-20T12:22:30.410Z,46.03
2019-04-20T12:23:30.617Z,46.03
2019-04-20T12:24:31.240Z,45.83
2019-04-20T12:25:33.328Z,45.73
2019-04-20T12:26:31.107Z,45.83
2019-04-20T12:27:30.477Z,45.73
2019-04-20T12:28:30.085Z,45.93
2019-04-20T12:29:30.016Z,45.93
2019-04-20T12:30:30.084Z,45.93
2019-04-20T12:31:29.985Z,46.23
2019-04-20T12:32:36.437Z,46.42
2019-04-20T12:33:30.989Z,46.13
2019-04-20T12:34:30.729Z,46.23
2019-04-20T12:35:30.053Z,45.93
2019-04-20T12:36:30.220Z,45.93
2019-04-20T12:37:31.226Z,45.83
2019-04-20T12:38:30.794Z,46.13
2019-04-20T12:39:31.234Z,45.83
2019-04-20T12:40:30.195Z,45.93
2019-04-20T12:41:37.148Z,45.83
2019-04-20T12:42:30.944Z,46.23
2019-04-20T12:43:29.920Z,45.83
2019-04-20T12:44:30.030Z,46.13
2019-04-20T12:45:29.838Z,45.83
2019-04-20T12:46:29.829Z,46.13
2019-04-20T12:47:29.985Z,45.85
2019-04-20T12:48:29.809Z,46.13
2019-04-20T12:49:29.778Z,46.25
2019-04-20T12:50:29.900Z,45.95
2019-04-20T12:51:33.896Z,46.13
2019-04-20T12:52:30.801Z,45.93
2019-04-20T12:53:30.722Z,46.23
2019-04-20T12:54:29.777Z,45.95
2019-04-20T12:55:30.550Z,46.03
2019-04-20T12:56:30.634Z,46.15
2019-04-20T12:57:29.738Z,46.42
2019-04-20T12:58:30.563Z,46.42
2019-04-20T12:59:29.738Z,46.23
2019-04-20T13:00:29.770Z,46.05
2019-04-20T13:01:30.431Z,46.35
2019-04-20T13:02:29.651Z,46.13
2019-04-20T13:03:29.804Z,46.23
2019-04-20T13:04:30.186Z,46.25
2019-04-20T13:05:29.737Z,46.95
2019-04-20T13:06:30.024Z,46.95
2019-04-20T13:07:31.536Z,46.65
2019-04-20T13:08:38.103Z,46.45
2019-04-20T13:09:30.676Z,46.75
2019-04-20T13:10:29.675Z,46.55
2019-04-20T13:11:30.816Z,46.75